Hauptseite
METAR-TAF:

METAR-TAF

Flughäfen :

Flughafen Gran Canaria

Gran Canaria, Spanien

Breite: 27-56N, Länge: 015-23W, Höhe: 23 m

Beobachtung

Neuester Wetterbericht von vor 24 Minuten, um 05:00 UTC
Wind 20 kt aus Nord
Temperatur 17°C
Luftfeuchtigkeit 77%
Luftdruck 1018 hPa
Sichtweite 10 km oder mehr
Leicht bewölkt in der Höhe von 3500 ft
Durchbrochene Bewölkung in der Höhe von 4000 ft

METAR: GCLP 190500Z 36020KT 9999 FEW035 BKN040 17/13 Q1018 NOSIG

Zeit: 06:24 (05:24 UTC)

Prognose

Neuester Wetterbericht von vor 3 Stunden und 24 Minuten, um 02:00 UTC
Gültige Prognose vom 19 um 03 UTC bis 20 um 03 UTC
Wind 20 kt aus Nord
Sichtweite 10 km oder mehr
Aufgelockert bewölkt in der Höhe von 3000 ft
Wahrscheinlichkeit 40% :
Zeitweise
vom 19 um 03 UTC bis 19 um 20 UTC
Wind 22 kt aus Nord, Böen bis zu 32 kt

TAF: GCLP 190200Z 1903/2003 36020KT 9999 SCT030 TX22/1914Z TN17/1906Z PROB40 TEMPO 1903/1920 36022G32KT

Wetterbeobachtungen und Prognosen von mehr als 4000 Flughäfen (METAR und TAF Bericht).

Die verfügbaren Stationen werden durch gelbe und rote Markierungen auf der Karte dargestellt.

Führen Sie die Maus auf sie, um den Namen der Station zu sehen.

Darauf klicken, um die Beobachtung von Wetterbeobachtungen und Prognosen zu sehen.

Um die Karte zu ändern : klicken Sie auf den grünen Tasten mit einem schwarzen Kreuz Zum Vergrößern, auf den grünen Button mit einem Gedankenstrich zu verkleinern, oder auf die grünen Pfeile für benachbarte Karten.


METAR-TAF: